Time;durP1;ratioP1;P1;durP2;ratioP2;P2;SDS_P1;SDS_P2;PMS_P1;PMS_P2;Temp;Humidity;BMP_temperature;BMP_pressure;BME280_temperature;BME280_humidity;BME280_pressure;Samples;Min_cycle;Max_cycle;Signal;HPM_P1;HPM_P2
2022/11/19 00:01:23;;;;;;;5.38;2.55;;;12.50;59.80;;;;;;5041294;28;20052;-49
2022/11/19 00:03:50;;;;;;;2.75;1.75;;;12.50;59.90;;;;;;5043979;28;20053;-53
2022/11/19 00:06:19;;;;;;;5.50;1.85;;;12.50;59.80;;;;;;5044711;28;20060;-53
2022/11/19 00:08:46;;;;;;;3.35;2.03;;;12.50;59.80;;;;;;5044022;28;20524;-48
2022/11/19 00:12:53;;;;;;;2.85;1.85;;;12.50;59.80;;;;;;5043070;28;20060;-51
2022/11/19 00:14:03;;;;;;;6.93;2.50;;;12.50;59.80;;;;;;5044034;28;20491;-53
2022/11/19 00:16:31;;;;;;;5.82;2.30;;;12.50;59.80;;;;;;5043600;28;20917;-53
2022/11/19 00:18:58;;;;;;;4.63;2.53;;;12.50;59.80;;;;;;5042759;28;20068;-53
2022/11/19 00:21:25;;;;;;;3.72;2.13;;;12.50;59.80;;;;;;5041060;28;20080;-49
2022/11/19 00:23:53;;;;;;;3.80;2.67;;;12.50;59.80;;;;;;5045293;28;20496;-52
2022/11/19 00:26:23;;;;;;;5.38;2.60;;;12.50;59.80;;;;;;5043091;28;20056;-50
2022/11/19 00:28:50;;;;;;;4.15;2.25;;;12.50;60.10;;;;;;5042157;28;20064;-52
2022/11/19 00:31:18;;;;;;;4.10;2.60;;;12.50;59.90;;;;;;5039998;28;20060;-53
2022/11/19 00:33:48;;;;;;;4.35;2.55;;;12.50;59.90;;;;;;5044604;28;20049;-51
2022/11/19 00:36:16;;;;;;;4.50;3.10;;;12.50;59.90;;;;;;5044141;28;20045;-53
2022/11/19 00:38:43;;;;;;;4.88;3.28;;;12.50;59.90;;;;;;5043252;28;20052;-53
2022/11/19 00:41:11;;;;;;;5.45;2.65;;;12.50;59.90;;;;;;5042045;28;20056;-53
2022/11/19 00:43:48;;;;;;;4.32;2.88;;;12.50;59.90;;;;;;5043398;28;20045;-51
2022/11/19 00:46:17;;;;;;;4.82;2.65;;;12.50;59.90;;;;;;5041961;28;20420;-51
2022/11/19 00:48:45;;;;;;;4.68;2.85;;;12.50;59.90;;;;;;5043686;28;20063;-53
2022/11/19 00:51:12;;;;;;;4.55;2.92;;;12.50;59.90;;;;;;5041898;28;20053;-48
2022/11/19 00:53:40;;;;;;;5.35;2.97;;;12.50;59.90;;;;;;5044505;28;20056;-48
2022/11/19 00:56:09;;;;;;;4.57;3.00;;;12.50;60.00;;;;;;5043190;28;20072;-53
2022/11/19 00:58:37;;;;;;;4.05;3.08;;;12.50;60.00;;;;;;5042429;28;20057;-50
2022/11/19 01:01:06;;;;;;;4.13;3.20;;;12.50;60.00;;;;;;5041162;28;20519;-53
2022/11/19 01:03:34;;;;;;;5.78;3.28;;;12.50;60.00;;;;;;5043392;28;20064;-50
2022/11/19 01:06:01;;;;;;;5.28;3.00;;;12.50;60.00;;;;;;5044836;28;20053;-52
2022/11/19 01:08:29;;;;;;;7.88;3.20;;;12.50;60.00;;;;;;5043547;28;20143;-51
2022/11/19 01:11:03;;;;;;;9.57;3.88;;;12.50;60.70;;;;;;5041230;28;20382;-47
2022/11/19 01:13:36;;;;;;;5.47;3.47;;;12.50;60.00;;;;;;5043050;28;20064;-53
2022/11/19 01:16:08;;;;;;;4.72;2.97;;;12.50;60.00;;;;;;5042883;28;20055;-52
2022/11/19 01:18:36;;;;;;;3.97;2.78;;;12.50;60.00;;;;;;5043180;28;20068;-52
2022/11/19 01:21:04;;;;;;;4.15;2.90;;;12.50;60.00;;;;;;5039912;28;20052;-46
2022/11/19 01:23:32;;;;;;;4.35;2.60;;;12.50;60.00;;;;;;5042779;28;20060;-53
2022/11/19 01:26:00;;;;;;;5.55;2.80;;;12.50;60.00;;;;;;5042519;28;20076;-52
2022/11/19 01:28:28;;;;;;;5.90;2.70;;;12.50;60.00;;;;;;5043152;28;20057;-52
2022/11/19 01:30:55;;;;;;;6.15;2.47;;;12.50;60.00;;;;;;5039890;28;20053;-51
2022/11/19 01:33:24;;;;;;;3.67;2.45;;;12.50;60.00;;;;;;5044009;28;20052;-49
2022/11/19 01:35:58;;;;;;;4.72;2.65;;;12.50;60.00;;;;;;5044256;28;20053;-52
2022/11/19 01:38:26;;;;;;;5.55;2.42;;;12.50;60.10;;;;;;5042821;28;20057;-53
2022/11/19 01:40:54;;;;;;;4.50;2.15;;;12.50;60.10;;;;;;5041132;28;20127;-54
2022/11/19 01:43:41;;;;;;;2.25;2.05;;;12.50;60.10;;;;;;5043086;28;20053;-52
2022/11/19 01:46:09;;;;;;;3.30;2.10;;;12.50;60.10;;;;;;5040428;28;20045;-50
2022/11/19 01:48:43;;;;;;;3.92;2.20;;;12.50;60.00;;;;;;5043323;28;20063;-51
2022/11/19 01:51:16;;;;;;;2.90;2.33;;;12.50;60.10;;;;;;5041190;28;20056;-50
2022/11/19 01:53:45;;;;;;;4.40;2.38;;;12.50;60.10;;;;;;5043742;28;20049;-47
2022/11/19 01:56:14;;;;;;;2.88;2.40;;;12.50;60.10;;;;;;5042324;28;20041;-53
2022/11/19 01:58:45;;;;;;;4.15;2.50;;;12.50;60.10;;;;;;5042722;28;20052;-53
2022/11/19 02:01:14;;;;;;;4.53;2.47;;;12.50;60.10;;;;;;5037605;28;20052;-48
2022/11/19 02:03:43;;;;;;;5.32;3.03;;;12.50;60.10;;;;;;5042495;28;20049;-51
2022/11/19 02:06:12;;;;;;;3.95;2.83;;;12.50;60.20;;;;;;5041327;28;20413;-53
2022/11/19 02:08:41;;;;;;;4.45;2.78;;;12.50;60.10;;;;;;5039942;28;20049;-49
2022/11/19 02:11:39;;;;;;;5.47;3.50;;;12.50;60.10;;;;;;5040114;28;20405;-49
2022/11/19 02:14:23;;;;;;;4.20;2.72;;;12.50;60.20;;;;;;5037852;28;20048;-48
2022/11/19 02:16:57;;;;;;;4.35;2.90;;;12.50;60.10;;;;;;5039769;28;20056;-52
2022/11/19 02:20:11;;;;;;;5.18;2.90;;;12.50;60.10;;;;;;5041942;28;20057;-49
2022/11/19 02:23:01;;;;;;;4.13;2.90;;;12.50;60.10;;;;;;5042342;28;20049;-51
2022/11/19 02:25:42;;;;;;;4.07;3.20;;;12.50;60.00;;;;;;5042149;28;20084;-53
2022/11/19 02:28:28;;;;;;;5.47;3.15;;;12.50;60.00;;;;;;5042149;28;20394;-51
2022/11/19 02:31:05;;;;;;;5.38;3.25;;;12.50;60.10;;;;;;5038280;28;20045;-51
2022/11/19 02:33:40;;;;;;;4.65;2.90;;;12.50;60.00;;;;;;5043687;28;20045;-52
2022/11/19 02:36:14;;;;;;;3.53;2.75;;;12.50;60.00;;;;;;5044811;28;20052;-50
2022/11/19 02:38:45;;;;;;;4.63;3.17;;;12.50;60.00;;;;;;5035310;28;20505;-51
2022/11/19 02:46:49;;;;;;;5.72;4.00;;;12.50;60.00;;;;;;5046405;28;20037;-50
2022/11/19 02:49:19;;;;;;;3.60;2.92;;;12.50;60.00;;;;;;5048699;28;20053;-51
2022/11/19 02:51:47;;;;;;;3.00;2.03;;;12.50;59.90;;;;;;5045578;28;20053;-50
2022/11/19 02:54:16;;;;;;;3.17;2.15;;;12.50;59.80;;;;;;5048866;28;20052;-49
2022/11/19 02:56:47;;;;;;;2.95;1.95;;;12.50;59.80;;;;;;5047784;28;20049;-48
2022/11/19 03:04:52;;;;;;;2.38;2.03;;;12.40;59.00;;;;;;5048551;28;20072;-49
2022/11/19 03:07:21;;;;;;;4.05;1.30;;;12.30;59.00;;;;;;5047485;28;20068;-50
2022/11/19 03:09:52;;;;;;;1.40;1.30;;;12.20;58.90;;;;;;5046665;28;20053;-49
2022/11/19 03:12:27;;;;;;;3.78;0.93;;;12.10;58.80;;;;;;5048497;28;20053;-49
2022/11/19 03:18:00;;;;;;;1.20;0.80;;;11.90;59.20;;;;;;5055443;28;21217;-52
2022/11/19 03:20:34;;;;;;;2.38;0.47;;;11.90;59.40;;;;;;5047687;28;20064;-46
2022/11/19 03:23:08;;;;;;;0.43;0.40;;;11.90;59.40;;;;;;5050580;28;20053;-50
2022/11/19 03:25:40;;;;;;;1.15;0.68;;;11.90;59.50;;;;;;5049467;28;20053;-51
2022/11/19 03:28:14;;;;;;;0.40;0.30;;;11.80;59.50;;;;;;5052096;28;20052;-48
2022/11/19 03:30:44;;;;;;;0.57;0.47;;;11.80;59.40;;;;;;5049605;28;20071;-48
2022/11/19 03:33:19;;;;;;;0.40;0.30;;;11.80;59.30;;;;;;5050745;28;20045;-49
2022/11/19 03:35:49;;;;;;;2.22;0.60;;;11.80;59.10;;;;;;5051495;28;20068;-52
2022/11/19 03:38:22;;;;;;;0.50;0.40;;;11.70;59.00;;;;;;5049059;28;20084;-50
2022/11/19 03:40:50;;;;;;;2.25;0.55;;;11.70;58.80;;;;;;5048212;28;20079;-49
2022/11/19 03:43:20;;;;;;;0.80;0.50;;;11.70;58.70;;;;;;5051720;28;20045;-45
2022/11/19 03:45:51;;;;;;;3.90;0.40;;;11.70;58.50;;;;;;5050438;28;20061;-45
2022/11/19 03:48:22;;;;;;;0.70;0.50;;;11.60;58.30;;;;;;5051667;28;20511;-45
2022/11/19 03:50:54;;;;;;;0.73;0.50;;;11.60;58.20;;;;;;5049474;28;20048;-49
2022/11/19 03:53:22;;;;;;;1.02;0.50;;;11.60;58.10;;;;;;5047883;28;20055;-46
2022/11/19 03:55:53;;;;;;;1.63;0.70;;;11.50;58.00;;;;;;5049833;28;20064;-52
2022/11/19 03:58:24;;;;;;;0.93;0.68;;;11.50;58.00;;;;;;5049064;28;20064;-53
2022/11/19 04:00:51;;;;;;;2.45;0.60;;;11.40;57.90;;;;;;5048263;28;20515;-51
2022/11/19 04:03:20;;;;;;;1.20;0.52;;;11.40;57.90;;;;;;5048788;28;20061;-46
2022/11/19 04:05:47;;;;;;;0.47;0.47;;;11.40;57.90;;;;;;5049949;28;20088;-49
2022/11/19 04:08:14;;;;;;;0.75;0.60;;;11.30;57.90;;;;;;5046919;28;20337;-48
2022/11/19 04:10:42;;;;;;;0.77;0.50;;;11.30;57.70;;;;;;5048625;28;20432;-52
2022/11/19 04:13:09;;;;;;;1.48;0.70;;;11.30;57.70;;;;;;5050930;28;20493;-49
2022/11/19 04:15:36;;;;;;;0.95;0.75;;;11.20;57.50;;;;;;5047087;28;20056;-52
2022/11/19 04:18:04;;;;;;;0.70;0.70;;;11.20;57.40;;;;;;5051342;28;20064;-47
2022/11/19 04:20:32;;;;;;;0.70;0.70;;;11.10;57.30;;;;;;5051607;28;20060;-50
2022/11/19 04:23:00;;;;;;;1.02;0.90;;;11.10;57.20;;;;;;5052320;28;20053;-51
2022/11/19 04:25:27;;;;;;;1.70;0.90;;;11.00;57.10;;;;;;5052647;28;20408;-51
2022/11/19 04:27:54;;;;;;;1.33;1.00;;;11.00;57.10;;;;;;5052148;28;20064;-46
2022/11/19 04:30:21;;;;;;;1.75;1.00;;;10.90;57.10;;;;;;5052140;28;20053;-50
2022/11/19 04:32:48;;;;;;;1.25;1.05;;;10.90;57.10;;;;;;5054194;28;20056;-51
2022/11/19 04:35:20;;;;;;;1.33;1.00;;;10.80;57.10;;;;;;5053641;28;20052;-51
2022/11/19 04:37:48;;;;;;;1.20;1.10;;;10.80;57.10;;;;;;5050348;28;20053;-51
2022/11/19 04:40:16;;;;;;;1.23;1.10;;;10.70;57.00;;;;;;5051890;28;20051;-52
2022/11/19 04:42:43;;;;;;;1.75;1.40;;;10.70;57.00;;;;;;5053917;28;20049;-49
2022/11/19 04:45:11;;;;;;;1.55;1.08;;;10.60;57.00;;;;;;5023822;28;20057;-49
2022/11/19 04:47:38;;;;;;;1.63;1.30;;;10.60;57.00;;;;;;5012463;28;20061;-51
2022/11/19 04:50:06;;;;;;;3.22;1.75;;;10.60;57.10;;;;;;5011936;28;20080;-50
2022/11/19 04:52:33;;;;;;;2.05;1.70;;;10.50;57.10;;;;;;5008777;28;20050;-46
2022/11/19 04:55:02;;;;;;;2.58;1.90;;;10.50;57.10;;;;;;5011577;28;20474;-51
2022/11/19 04:57:29;;;;;;;2.85;2.03;;;10.50;57.10;;;;;;5013464;28;20831;-52
2022/11/19 04:59:58;;;;;;;2.45;2.25;;;10.40;57.00;;;;;;5012755;28;20107;-46
2022/11/19 05:02:25;;;;;;;3.05;2.47;;;10.40;56.80;;;;;;5011995;28;20094;-50
2022/11/19 05:04:52;;;;;;;4.63;2.20;;;10.30;56.80;;;;;;5016230;28;20087;-49
2022/11/19 05:07:19;;;;;;;2.58;2.20;;;10.30;56.90;;;;;;4993387;28;20080;-50
2022/11/19 05:09:46;;;;;;;3.88;2.25;;;10.20;56.80;;;;;;4992323;28;20050;-51
2022/11/19 05:12:15;;;;;;;3.67;2.47;;;10.20;56.80;;;;;;4991385;28;20065;-48
2022/11/19 05:14:42;;;;;;;5.72;3.40;;;10.10;56.70;;;;;;4992240;28;20050;-49
2022/11/19 05:17:09;;;;;;;4.15;2.80;;;10.10;56.60;;;;;;4990580;28;20047;-52
2022/11/19 05:19:37;;;;;;;5.45;2.63;;;10.00;56.60;;;;;;4992715;28;20054;-50
2022/11/19 05:22:04;;;;;;;3.40;2.92;;;10.00;57.20;;;;;;4992506;28;20061;-48
2022/11/19 05:24:31;;;;;;;3.88;3.03;;;10.00;56.80;;;;;;4991716;28;20054;-46
2022/11/19 05:26:58;;;;;;;4.07;3.03;;;9.90;56.80;;;;;;4986243;28;20062;-49
2022/11/19 05:29:27;;;;;;;5.00;3.20;;;9.90;56.80;;;;;;4992225;28;20061;-52
2022/11/19 05:31:54;;;;;;;3.67;3.17;;;9.80;56.70;;;;;;4987077;28;20050;-46
2022/11/19 05:34:21;;;;;;;3.38;3.05;;;9.80;56.70;;;;;;4992735;28;20046;-47
2022/11/19 05:36:48;;;;;;;3.55;3.13;;;9.80;56.80;;;;;;4993930;28;20058;-49
2022/11/19 05:39:16;;;;;;;3.70;2.90;;;9.70;56.90;;;;;;4993317;28;20050;-49
2022/11/19 05:41:43;;;;;;;6.03;3.78;;;9.70;57.10;;;;;;4992712;28;20062;-48
2022/11/19 05:44:10;;;;;;;3.85;3.15;;;9.60;57.10;;;;;;4992799;28;20054;-49
2022/11/19 05:46:39;;;;;;;4.40;3.17;;;9.60;57.10;;;;;;4993267;28;20053;-50
2022/11/19 05:49:06;;;;;;;4.03;3.40;;;9.60;57.10;;;;;;4994515;28;20058;-52
2022/11/19 05:51:33;;;;;;;5.85;3.70;;;9.60;57.20;;;;;;4993328;28;20391;-46
2022/11/19 05:54:01;;;;;;;5.00;3.88;;;9.50;57.20;;;;;;4992870;28;20061;-51
2022/11/19 05:56:28;;;;;;;5.45;3.63;;;9.50;57.10;;;;;;4993481;28;20054;-47
2022/11/19 05:58:55;;;;;;;5.25;3.60;;;9.50;57.10;;;;;;4993291;28;20518;-49
2022/11/19 06:01:25;;;;;;;5.65;4.05;;;9.50;57.10;;;;;;4991732;28;20070;-51
2022/11/19 06:03:54;;;;;;;4.97;3.88;;;9.50;57.10;;;;;;4994686;28;20069;-51
2022/11/19 06:06:23;;;;;;;4.40;3.67;;;9.50;57.10;;;;;;4985694;28;20050;-49
2022/11/19 06:08:50;;;;;;;5.45;3.40;;;9.50;57.20;;;;;;4990687;28;20065;-49
2022/11/19 06:13:58;;;;;;;4.32;3.50;;;9.40;57.20;;;;;;4992089;28;20050;-53
2022/11/19 06:16:26;;;;;;;5.15;3.95;;;9.40;57.20;;;;;;4995199;28;20050;-48
2022/11/19 06:18:55;;;;;;;4.57;3.38;;;9.40;57.20;;;;;;4996254;28;20053;-47
2022/11/19 06:21:22;;;;;;;4.65;3.47;;;9.40;57.20;;;;;;4994404;28;20057;-51
2022/11/19 06:23:49;;;;;;;5.20;3.92;;;9.40;57.30;;;;;;4997669;28;20058;-51
2022/11/19 06:26:22;;;;;;;4.95;4.00;;;9.40;57.30;;;;;;4994876;28;20053;-50
2022/11/19 06:28:49;;;;;;;6.18;4.65;;;9.40;57.30;;;;;;4997727;28;20065;-51
2022/11/19 06:31:17;;;;;;;8.98;5.57;;;9.40;57.30;;;;;;4990659;28;20058;-51
2022/11/19 06:33:44;;;;;;;6.63;4.85;;;9.40;57.30;;;;;;4988796;28;20896;-52
2022/11/19 06:36:12;;;;;;;6.90;5.28;;;9.40;57.20;;;;;;4995829;28;20054;-51
2022/11/19 06:38:40;;;;;;;7.57;5.72;;;9.30;57.20;;;;;;4996222;28;20054;-50
2022/11/19 06:41:07;;;;;;;8.00;5.88;;;9.30;57.20;;;;;;4993721;28;20057;-48
2022/11/19 06:43:35;;;;;;;7.65;5.60;;;9.30;57.10;;;;;;4995996;28;20054;-46
2022/11/19 06:46:02;;;;;;;7.13;5.63;;;9.30;57.10;;;;;;4984506;28;20066;-51
2022/11/19 06:48:29;;;;;;;8.93;6.18;;;9.30;57.00;;;;;;4996543;28;20490;-49
2022/11/19 06:50:56;;;;;;;9.55;6.25;;;9.30;57.10;;;;;;4995541;28;20057;-50
2022/11/19 06:53:25;;;;;;;8.77;6.47;;;9.20;57.10;;;;;;4993284;28;20067;-48
2022/11/19 06:55:56;;;;;;;13.38;8.02;;;9.20;57.10;;;;;;4994601;28;20548;-52
2022/11/19 06:58:23;;;;;;;44.08;19.88;;;9.20;57.10;;;;;;4997545;28;20065;-45
2022/11/19 07:00:50;;;;;;;20.15;11.30;;;9.10;57.10;;;;;;4990308;28;20046;-50
2022/11/19 07:03:18;;;;;;;12.20;8.18;;;9.10;57.00;;;;;;4997528;28;20054;-48
2022/11/19 07:05:46;;;;;;;10.18;7.85;;;9.10;57.00;;;;;;5017372;28;20046;-47
2022/11/19 07:08:14;;;;;;;9.18;7.03;;;9.10;57.10;;;;;;5017761;28;20060;-48
2022/11/19 07:10:42;;;;;;;9.25;6.50;;;9.10;57.00;;;;;;5016667;28;20057;-51
2022/11/19 07:13:09;;;;;;;9.20;6.75;;;9.00;57.00;;;;;;5013246;28;20057;-49
2022/11/19 07:15:37;;;;;;;11.65;7.35;;;9.00;56.90;;;;;;5014345;28;20056;-49
2022/11/19 07:18:04;;;;;;;10.10;6.82;;;9.00;57.00;;;;;;5016984;28;20075;-48
2022/11/19 07:20:32;;;;;;;11.43;7.78;;;9.00;56.90;;;;;;5017058;28;20049;-51
2022/11/19 07:23:00;;;;;;;13.00;7.47;;;9.00;57.00;;;;;;5015493;28;20502;-52
2022/11/19 07:25:27;;;;;;;12.27;7.85;;;8.90;57.00;;;;;;5016117;28;20046;-46
2022/11/19 07:27:56;;;;;;;10.35;7.72;;;8.90;56.90;;;;;;5015985;28;20054;-46
2022/11/19 07:30:23;;;;;;;10.18;7.13;;;8.90;56.80;;;;;;5013538;28;20573;-52
2022/11/19 07:32:53;;;;;;;28.00;14.70;;;8.90;56.90;;;;;;5013461;28;20053;-52
2022/11/19 07:35:20;;;;;;;19.77;12.20;;;8.90;57.00;;;;;;5004616;28;20053;-51
2022/11/19 07:37:48;;;;;;;12.38;8.77;;;8.80;57.00;;;;;;5014087;28;20056;-50
2022/11/19 07:40:15;;;;;;;11.00;7.93;;;8.80;57.10;;;;;;5011719;28;21065;-51
2022/11/19 07:42:48;;;;;;;10.35;7.53;;;8.80;57.10;;;;;;5014957;28;20625;-52
2022/11/19 07:45:17;;;;;;;10.80;7.70;;;8.80;57.20;;;;;;5012611;28;20053;-50
2022/11/19 07:47:44;;;;;;;10.95;7.78;;;8.80;57.20;;;;;;5016462;28;20061;-47
2022/11/19 07:50:12;;;;;;;9.75;7.03;;;8.80;57.30;;;;;;5013031;28;20510;-47
2022/11/19 07:52:39;;;;;;;11.60;8.60;;;8.80;57.20;;;;;;5012178;28;20058;-47
2022/11/19 07:55:07;;;;;;;12.45;8.90;;;8.80;57.20;;;;;;5014660;28;20050;-51
2022/11/19 07:57:34;;;;;;;12.30;8.40;;;8.80;57.20;;;;;;5011972;28;20610;-48
2022/11/19 08:00:02;;;;;;;10.70;8.02;;;8.80;57.10;;;;;;5012890;28;20053;-46
2022/11/19 08:02:30;;;;;;;11.00;8.10;;;8.70;57.00;;;;;;5014730;28;20057;-50
2022/11/19 08:04:58;;;;;;;11.00;7.68;;;8.80;56.90;;;;;;5011638;28;20057;-49
2022/11/19 08:07:25;;;;;;;11.45;8.00;;;8.80;56.90;;;;;;5004743;28;20494;-52
2022/11/19 08:09:52;;;;;;;12.38;8.13;;;8.70;56.80;;;;;;5009268;28;20046;-51
2022/11/19 08:12:19;;;;;;;9.57;7.20;;;8.70;56.80;;;;;;5012432;28;20058;-51
2022/11/19 08:14:46;;;;;;;10.88;7.40;;;8.70;56.70;;;;;;5013796;28;20494;-50
2022/11/19 08:20:00;;;;;;;11.73;7.70;;;8.70;56.70;;;;;;5012100;28;20053;-40
2022/11/19 08:22:55;;;;;;;9.60;6.90;;;8.70;56.70;;;;;;4998987;28;20058;-39
2022/11/19 08:25:22;;;;;;;10.77;7.22;;;8.70;56.70;;;;;;5003694;28;20406;-43
2022/11/19 08:27:49;;;;;;;9.80;6.85;;;8.70;56.70;;;;;;5004174;28;20054;-46
2022/11/19 08:30:17;;;;;;;10.52;7.20;;;8.70;56.70;;;;;;5001459;28;20053;-43
2022/11/19 08:32:44;;;;;;;11.55;7.28;;;8.60;56.60;;;;;;5007557;28;20077;-46
2022/11/19 08:35:12;;;;;;;9.88;7.05;;;8.70;56.70;;;;;;5009883;28;20049;-45
2022/11/19 08:37:39;;;;;;;10.02;7.03;;;8.60;56.60;;;;;;4998738;28;20409;-40
2022/11/19 08:40:08;;;;;;;98.90;39.47;;;8.60;56.60;;;;;;4994076;28;20049;-46
2022/11/19 08:45:21;;;;;;;20.13;11.35;;;8.60;56.60;;;;;;4996663;28;20057;-40
2022/11/19 08:47:48;;;;;;;11.43;7.72;;;8.70;56.60;;;;;;4997839;28;20049;-40
2022/11/19 08:50:17;;;;;;;11.18;7.60;;;8.60;56.60;;;;;;4998710;28;20493;-40
2022/11/19 08:52:44;;;;;;;13.45;7.85;;;8.60;56.60;;;;;;4998024;28;20069;-41
2022/11/19 08:55:12;;;;;;;10.38;7.50;;;8.60;56.60;;;;;;5000322;28;20394;-43
2022/11/19 08:57:39;;;;;;;10.35;7.30;;;8.60;56.70;;;;;;5003588;28;20056;-48
2022/11/19 09:00:07;;;;;;;12.00;7.88;;;8.60;56.70;;;;;;5003124;28;20053;-47
2022/11/19 09:02:35;;;;;;;10.77;7.75;;;8.60;56.70;;;;;;4995655;28;20420;-43
2022/11/19 09:05:02;;;;;;;13.90;8.57;;;8.60;56.70;;;;;;4993317;28;20061;-42
2022/11/19 09:07:30;;;;;;;13.32;8.30;;;8.60;56.70;;;;;;4998675;28;20046;-47
2022/11/19 09:09:57;;;;;;;13.00;8.05;;;8.60;56.60;;;;;;5011111;28;20054;-46
2022/11/19 09:12:25;;;;;;;11.52;7.32;;;8.60;56.60;;;;;;5005141;28;20050;-46
2022/11/19 09:14:52;;;;;;;10.50;7.07;;;8.60;56.60;;;;;;5010894;28;20060;-49
2022/11/19 09:17:19;;;;;;;11.25;7.32;;;8.60;56.60;;;;;;4999397;28;20597;-46
2022/11/19 09:19:46;;;;;;;11.10;7.60;;;8.60;56.70;;;;;;5006130;28;20053;-49
2022/11/19 09:22:13;;;;;;;10.10;7.25;;;8.60;56.70;;;;;;5004199;28;20053;-49
2022/11/19 09:24:42;;;;;;;9.82;7.03;;;8.60;56.70;;;;;;4998579;28;20050;-41
2022/11/19 09:27:09;;;;;;;13.68;7.95;;;8.60;56.80;;;;;;4999461;28;20052;-41
2022/11/19 09:29:36;;;;;;;9.88;6.80;;;8.60;56.80;;;;;;4999513;28;20054;-42
2022/11/19 09:32:04;;;;;;;9.80;7.13;;;8.60;56.80;;;;;;4989455;28;20612;-45
2022/11/19 09:34:33;;;;;;;10.75;6.55;;;8.60;56.90;;;;;;5002016;28;20529;-44
2022/11/19 09:37:00;;;;;;;10.77;7.07;;;8.60;56.90;;;;;;4998052;28;20130;-43
2022/11/19 09:39:27;;;;;;;10.32;7.45;;;8.60;57.00;;;;;;4994220;28;20509;-43
2022/11/19 09:42:03;;;;;;;10.60;6.85;;;8.60;56.90;;;;;;4994501;28;20050;-43
2022/11/19 09:44:41;;;;;;;9.45;6.18;;;8.70;57.00;;;;;;4988630;28;20046;-43
2022/11/19 09:47:23;;;;;;;9.40;5.60;;;8.70;57.00;;;;;;5000227;28;20060;-43
2022/11/19 09:50:02;;;;;;;8.68;5.50;;;8.70;56.90;;;;;;5000889;28;20065;-41
2022/11/19 09:52:33;;;;;;;8.75;5.35;;;8.70;56.90;;;;;;5001787;28;20054;-40
2022/11/19 09:55:01;;;;;;;7.68;5.50;;;8.70;56.90;;;;;;5003012;28;20065;-52
2022/11/19 09:57:36;;;;;;;7.28;5.13;;;8.70;56.80;;;;;;5005428;28;20053;-52
2022/11/19 10:00:10;;;;;;;8.00;5.30;;;8.70;56.80;;;;;;5009787;28;20057;-49
2022/11/19 10:02:37;;;;;;;10.15;6.07;;;8.70;56.80;;;;;;5009317;28;20505;-49
2022/11/19 10:05:04;;;;;;;6.78;4.90;;;8.70;56.80;;;;;;5008481;28;20399;-45
2022/11/19 10:07:44;;;;;;;7.03;4.93;;;8.80;56.90;;;;;;5009751;28;20057;-49
2022/11/19 10:10:26;;;;;;;6.22;4.53;;;8.80;56.90;;;;;;5007979;28;20401;-51
2022/11/19 10:13:11;;;;;;;7.38;4.72;;;8.80;56.80;;;;;;5009660;28;20072;-45
2022/11/19 10:15:49;;;;;;;8.20;5.47;;;8.80;56.70;;;;;;5003054;28;20050;-48
2022/11/19 10:18:25;;;;;;;6.50;4.55;;;8.80;56.60;;;;;;5006916;28;20053;-51
2022/11/19 10:20:59;;;;;;;7.07;4.78;;;8.80;56.50;;;;;;5010578;28;20065;-51
2022/11/19 10:23:35;;;;;;;6.82;4.38;;;8.90;56.50;;;;;;5010131;28;20050;-50
2022/11/19 10:26:05;;;;;;;7.43;4.45;;;8.80;56.40;;;;;;5010213;28;20064;-52
2022/11/19 10:28:37;;;;;;;6.35;4.30;;;8.90;56.30;;;;;;5006911;28;20054;-51
2022/11/19 10:31:07;;;;;;;6.85;5.07;;;8.90;56.30;;;;;;5006586;28;20070;-41
2022/11/19 10:33:39;;;;;;;6.30;4.60;;;8.80;56.20;;;;;;5000474;28;20054;-42
2022/11/19 10:36:11;;;;;;;8.68;4.97;;;8.90;56.30;;;;;;5001772;28;20058;-42
2022/11/19 10:38:42;;;;;;;8.38;4.43;;;8.90;56.30;;;;;;5001405;28;20050;-41
2022/11/19 10:41:15;;;;;;;6.40;4.53;;;8.90;56.20;;;;;;4999571;28;20522;-46
2022/11/19 10:43:48;;;;;;;6.55;4.63;;;8.90;56.10;;;;;;5003179;28;20054;-40
2022/11/19 10:46:19;;;;;;;7.15;4.70;;;8.90;56.10;;;;;;4998741;28;20062;-43
2022/11/19 10:48:51;;;;;;;6.57;4.85;;;8.90;56.50;;;;;;5000168;28;20054;-41
2022/11/19 10:51:22;;;;;;;11.27;4.55;;;8.90;56.00;;;;;;4998672;28;20151;-44
2022/11/19 10:53:50;;;;;;;7.35;5.05;;;8.90;56.00;;;;;;4999901;28;20053;-41
2022/11/19 10:56:21;;;;;;;6.75;4.80;;;8.90;56.00;;;;;;4999309;28;20069;-45
2022/11/19 10:58:53;;;;;;;7.05;4.93;;;8.90;55.90;;;;;;5002512;28;20049;-44
2022/11/19 11:01:28;;;;;;;6.40;4.55;;;8.90;55.90;;;;;;4991659;28;20056;-41
2022/11/19 11:04:06;;;;;;;7.22;4.85;;;8.90;55.80;;;;;;5007851;28;20065;-41
2022/11/19 11:06:51;;;;;;;7.18;4.93;;;8.90;55.70;;;;;;5005771;28;20561;-41
2022/11/19 11:09:32;;;;;;;6.72;4.35;;;8.90;55.70;;;;;;5003659;28;20058;-43
2022/11/19 11:14:53;;;;;;;8.07;5.28;;;8.80;55.80;;;;;;5010371;28;20073;-44
2022/11/19 11:17:24;;;;;;;7.38;4.90;;;8.80;55.80;;;;;;5003504;28;20049;-45
2022/11/19 11:19:59;;;;;;;8.23;4.80;;;8.90;55.90;;;;;;5005030;28;20057;-45
2022/11/19 11:22:27;;;;;;;7.28;4.55;;;8.90;55.80;;;;;;5006461;28;20054;-50
2022/11/19 11:24:55;;;;;;;6.97;4.72;;;8.90;55.80;;;;;;5010294;28;20061;-49
2022/11/19 11:27:27;;;;;;;6.15;4.63;;;8.90;55.80;;;;;;5006183;28;20076;-51
2022/11/19 11:30:14;;;;;;;8.25;5.20;;;8.90;55.90;;;;;;5003003;28;20068;-52
2022/11/19 11:32:42;;;;;;;13.73;5.40;;;8.90;55.80;;;;;;5007745;28;20054;-50
2022/11/19 11:35:29;;;;;;;6.53;4.50;;;8.90;55.90;;;;;;5012450;28;20054;-51
2022/11/19 11:37:56;;;;;;;15.30;10.15;;;8.90;55.70;;;;;;5011951;28;20053;-50
2022/11/19 11:40:24;;;;;;;17.17;11.50;;;8.90;55.70;;;;;;5011195;28;20418;-50
2022/11/19 11:42:52;;;;;;;15.90;11.27;;;8.90;55.60;;;;;;5010807;28;20062;-50
2022/11/19 11:45:28;;;;;;;19.45;11.88;;;8.90;55.60;;;;;;5001964;28;20065;-48
2022/11/19 11:47:57;;;;;;;15.20;10.88;;;8.90;55.50;;;;;;5001986;28;20569;-50
2022/11/19 11:50:27;;;;;;;17.70;11.10;;;8.90;55.60;;;;;;5010796;28;20053;-50
2022/11/19 11:52:56;;;;;;;18.42;11.65;;;8.90;55.60;;;;;;5009003;28;20054;-49
2022/11/19 11:55:32;;;;;;;15.75;10.80;;;8.90;56.10;;;;;;5008156;28;20068;-48
2022/11/19 11:58:00;;;;;;;14.85;10.52;;;8.90;55.60;;;;;;5004776;28;20422;-42
2022/11/19 12:00:32;;;;;;;18.00;11.63;;;8.90;55.60;;;;;;5003351;28;20053;-42
2022/11/19 12:03:01;;;;;;;16.02;10.57;;;8.90;55.60;;;;;;5005459;28;20057;-46
2022/11/19 12:05:40;;;;;;;16.38;10.68;;;8.90;55.60;;;;;;5005143;28;20054;-40
2022/11/19 12:08:17;;;;;;;12.50;7.93;;;8.90;55.50;;;;;;5005196;28;20119;-41
2022/11/19 12:10:51;;;;;;;12.75;8.13;;;8.90;55.50;;;;;;5003737;28;20061;-40
2022/11/19 12:13:49;;;;;;;11.95;8.50;;;8.90;55.60;;;;;;5003701;28;20497;-43
2022/11/19 12:16:28;;;;;;;15.90;9.90;;;8.90;55.60;;;;;;5003207;28;20060;-40
2022/11/19 12:19:09;;;;;;;12.20;8.00;;;8.90;55.60;;;;;;5004800;28;20322;-41
2022/11/19 12:21:46;;;;;;;10.00;6.43;;;8.90;55.70;;;;;;5004189;28;20060;-40
2022/11/19 12:24:34;;;;;;;9.48;6.40;;;9.00;55.80;;;;;;5005218;28;20057;-45
2022/11/19 12:27:13;;;;;;;10.18;6.82;;;8.90;55.70;;;;;;5004478;28;20054;-43
2022/11/19 12:29:50;;;;;;;8.45;5.95;;;8.90;55.70;;;;;;5004502;28;20053;-44
2022/11/19 12:32:34;;;;;;;10.50;6.15;;;9.00;55.70;;;;;;4998642;28;20049;-41
2022/11/19 12:35:16;;;;;;;8.00;5.68;;;8.90;55.60;;;;;;5006933;28;20406;-50
2022/11/19 12:37:58;;;;;;;9.35;6.43;;;9.00;55.50;;;;;;5016092;28;20049;-52
2022/11/19 12:40:35;;;;;;;39.03;16.35;;;9.00;55.40;;;;;;5009858;28;20069;-51
2022/11/19 12:43:12;;;;;;;22.00;10.48;;;9.00;55.40;;;;;;5012836;28;20056;-44
2022/11/19 12:45:46;;;;;;;11.10;7.47;;;9.00;55.40;;;;;;5013985;28;20053;-50
2022/11/19 12:48:37;;;;;;;10.63;6.43;;;9.00;55.40;;;;;;5015315;28;20061;-51
2022/11/19 12:51:13;;;;;;;11.55;8.48;;;9.00;55.30;;;;;;5012554;28;20430;-50
2022/11/19 12:53:54;;;;;;;16.65;10.30;;;9.00;55.20;;;;;;5010727;28;20065;-50
2022/11/19 12:56:35;;;;;;;16.10;11.10;;;9.00;55.10;;;;;;5011789;28;20054;-49
2022/11/19 12:59:16;;;;;;;16.20;10.75;;;9.00;55.00;;;;;;5008175;28;20049;-39
2022/11/19 13:01:48;;;;;;;16.60;11.07;;;9.00;54.90;;;;;;5002414;28;20061;-40
2022/11/19 13:04:23;;;;;;;16.55;10.38;;;9.00;54.80;;;;;;5004016;28;20058;-43
2022/11/19 13:06:56;;;;;;;19.00;11.88;;;9.00;54.80;;;;;;5004101;28;20087;-44
2022/11/19 13:09:32;;;;;;;16.60;11.20;;;9.00;54.70;;;;;;4996231;28;20054;-41
2022/11/19 13:12:04;;;;;;;15.88;11.68;;;8.90;54.60;;;;;;5000512;28;20943;-40
2022/11/19 13:14:38;;;;;;;18.17;11.55;;;8.90;54.60;;;;;;5004502;28;20498;-39
2022/11/19 13:17:10;;;;;;;17.98;12.13;;;8.90;54.60;;;;;;5002950;28;20076;-38
2022/11/19 13:19:39;;;;;;;16.58;11.50;;;8.90;54.60;;;;;;5003862;28;20058;-43
2022/11/19 13:22:12;;;;;;;18.55;12.05;;;8.90;54.50;;;;;;5002255;28;20050;-39
2022/11/19 13:24:43;;;;;;;19.23;12.25;;;8.80;54.50;;;;;;5002484;28;20513;-39
2022/11/19 13:27:14;;;;;;;20.08;12.65;;;8.80;54.40;;;;;;5003319;28;20054;-40
2022/11/19 13:29:44;;;;;;;16.02;11.02;;;8.80;54.40;;;;;;5003262;28;20052;-40
2022/11/19 13:32:20;;;;;;;17.90;11.38;;;8.80;54.40;;;;;;5000621;28;20057;-39